sensor_id;sensor_type;location;lat;lon;timestamp;P1;durP1;ratioP1;P2;durP2;ratioP2
69310;SDS011;56430;48.154;16.458;2023-06-14T00:02:01;5.32;;;1.80;;
69310;SDS011;56430;48.154;16.458;2023-06-14T00:04:27;4.65;;;1.88;;
69310;SDS011;56430;48.154;16.458;2023-06-14T00:06:55;6.17;;;1.57;;
69310;SDS011;56430;48.154;16.458;2023-06-14T00:09:22;3.50;;;1.58;;
69310;SDS011;56430;48.154;16.458;2023-06-14T00:11:49;4.53;;;1.55;;
69310;SDS011;56430;48.154;16.458;2023-06-14T00:14:15;3.97;;;1.73;;
69310;SDS011;56430;48.154;16.458;2023-06-14T00:16:42;6.22;;;1.98;;
69310;SDS011;56430;48.154;16.458;2023-06-14T00:19:10;5.47;;;1.80;;
69310;SDS011;56430;48.154;16.458;2023-06-14T00:21:37;6.78;;;1.70;;
69310;SDS011;56430;48.154;16.458;2023-06-14T00:24:04;3.65;;;1.50;;
69310;SDS011;56430;48.154;16.458;2023-06-14T00:26:31;4.32;;;1.50;;
69310;SDS011;56430;48.154;16.458;2023-06-14T00:28:58;3.67;;;1.58;;
69310;SDS011;56430;48.154;16.458;2023-06-14T00:31:25;4.30;;;1.70;;
69310;SDS011;56430;48.154;16.458;2023-06-14T00:33:52;6.30;;;1.75;;
69310;SDS011;56430;48.154;16.458;2023-06-14T00:36:20;5.70;;;1.58;;
69310;SDS011;56430;48.154;16.458;2023-06-14T00:38:47;5.50;;;1.50;;
69310;SDS011;56430;48.154;16.458;2023-06-14T00:41:13;5.22;;;1.80;;
69310;SDS011;56430;48.154;16.458;2023-06-14T00:43:40;5.00;;;1.60;;
69310;SDS011;56430;48.154;16.458;2023-06-14T00:46:07;14.48;;;1.70;;
69310;SDS011;56430;48.154;16.458;2023-06-14T00:48:34;6.85;;;1.52;;
69310;SDS011;56430;48.154;16.458;2023-06-14T00:51:02;4.72;;;1.52;;
69310;SDS011;56430;48.154;16.458;2023-06-14T00:53:31;5.68;;;1.80;;
69310;SDS011;56430;48.154;16.458;2023-06-14T00:56:00;5.90;;;1.47;;
69310;SDS011;56430;48.154;16.458;2023-06-14T00:58:26;5.03;;;1.52;;
69310;SDS011;56430;48.154;16.458;2023-06-14T01:00:54;5.32;;;1.83;;
69310;SDS011;56430;48.154;16.458;2023-06-14T01:03:21;3.67;;;1.45;;
69310;SDS011;56430;48.154;16.458;2023-06-14T01:05:48;4.63;;;1.92;;
69310;SDS011;56430;48.154;16.458;2023-06-14T01:08:19;4.30;;;1.47;;
69310;SDS011;56430;48.154;16.458;2023-06-14T01:10:51;4.85;;;1.52;;
69310;SDS011;56430;48.154;16.458;2023-06-14T01:13:20;6.57;;;1.50;;
69310;SDS011;56430;48.154;16.458;2023-06-14T01:15:47;5.07;;;1.70;;
69310;SDS011;56430;48.154;16.458;2023-06-14T01:18:14;4.30;;;1.70;;
69310;SDS011;56430;48.154;16.458;2023-06-14T01:20:43;4.13;;;1.70;;
69310;SDS011;56430;48.154;16.458;2023-06-14T01:23:14;3.45;;;1.58;;
69310;SDS011;56430;48.154;16.458;2023-06-14T01:25:40;4.38;;;1.80;;
69310;SDS011;56430;48.154;16.458;2023-06-14T01:28:10;4.88;;;1.67;;
69310;SDS011;56430;48.154;16.458;2023-06-14T01:30:39;3.83;;;1.40;;
69310;SDS011;56430;48.154;16.458;2023-06-14T01:33:10;4.10;;;1.23;;
69310;SDS011;56430;48.154;16.458;2023-06-14T01:35:38;4.15;;;1.60;;
69310;SDS011;56430;48.154;16.458;2023-06-14T01:38:05;4.50;;;1.67;;
69310;SDS011;56430;48.154;16.458;2023-06-14T01:40:34;3.75;;;1.60;;
69310;SDS011;56430;48.154;16.458;2023-06-14T01:43:01;4.78;;;1.75;;
69310;SDS011;56430;48.154;16.458;2023-06-14T01:45:28;4.37;;;1.60;;
69310;SDS011;56430;48.154;16.458;2023-06-14T01:47:55;4.93;;;1.80;;
69310;SDS011;56430;48.154;16.458;2023-06-14T01:50:22;3.70;;;1.83;;
69310;SDS011;56430;48.154;16.458;2023-06-14T01:52:49;3.83;;;1.45;;
69310;SDS011;56430;48.154;16.458;2023-06-14T01:55:16;3.67;;;1.50;;
69310;SDS011;56430;48.154;16.458;2023-06-14T01:57:44;4.03;;;1.60;;
69310;SDS011;56430;48.154;16.458;2023-06-14T02:00:12;3.75;;;1.70;;
69310;SDS011;56430;48.154;16.458;2023-06-14T02:02:40;3.30;;;1.38;;
69310;SDS011;56430;48.154;16.458;2023-06-14T02:05:07;4.10;;;1.58;;
69310;SDS011;56430;48.154;16.458;2023-06-14T02:07:34;3.90;;;1.40;;
69310;SDS011;56430;48.154;16.458;2023-06-14T02:10:01;4.57;;;1.67;;
69310;SDS011;56430;48.154;16.458;2023-06-14T02:12:28;3.70;;;1.77;;
69310;SDS011;56430;48.154;16.458;2023-06-14T02:14:56;4.25;;;1.65;;
69310;SDS011;56430;48.154;16.458;2023-06-14T02:17:24;3.67;;;1.38;;
69310;SDS011;56430;48.154;16.458;2023-06-14T02:19:51;3.53;;;1.60;;
69310;SDS011;56430;48.154;16.458;2023-06-14T02:22:18;5.30;;;1.50;;
69310;SDS011;56430;48.154;16.458;2023-06-14T02:24:47;6.05;;;1.65;;
69310;SDS011;56430;48.154;16.458;2023-06-14T02:27:14;3.63;;;1.70;;
69310;SDS011;56430;48.154;16.458;2023-06-14T02:29:41;4.55;;;1.83;;
69310;SDS011;56430;48.154;16.458;2023-06-14T02:32:09;3.47;;;1.55;;
69310;SDS011;56430;48.154;16.458;2023-06-14T02:34:36;3.43;;;1.40;;
69310;SDS011;56430;48.154;16.458;2023-06-14T02:37:06;3.50;;;1.58;;
69310;SDS011;56430;48.154;16.458;2023-06-14T02:39:33;4.85;;;2.00;;
69310;SDS011;56430;48.154;16.458;2023-06-14T02:42:00;4.75;;;1.45;;
69310;SDS011;56430;48.154;16.458;2023-06-14T02:44:27;4.70;;;1.65;;
69310;SDS011;56430;48.154;16.458;2023-06-14T02:46:54;4.13;;;1.67;;
69310;SDS011;56430;48.154;16.458;2023-06-14T02:49:22;3.38;;;1.45;;
69310;SDS011;56430;48.154;16.458;2023-06-14T02:51:49;4.60;;;1.70;;
69310;SDS011;56430;48.154;16.458;2023-06-14T02:54:16;3.85;;;1.50;;
69310;SDS011;56430;48.154;16.458;2023-06-14T02:56:42;4.97;;;1.80;;
69310;SDS011;56430;48.154;16.458;2023-06-14T02:59:09;4.00;;;1.83;;
69310;SDS011;56430;48.154;16.458;2023-06-14T03:01:36;3.42;;;1.40;;
69310;SDS011;56430;48.154;16.458;2023-06-14T03:04:06;3.55;;;1.42;;
69310;SDS011;56430;48.154;16.458;2023-06-14T03:06:34;6.05;;;1.73;;
69310;SDS011;56430;48.154;16.458;2023-06-14T03:09:02;4.13;;;1.60;;
69310;SDS011;56430;48.154;16.458;2023-06-14T03:11:30;4.20;;;1.70;;
69310;SDS011;56430;48.154;16.458;2023-06-14T03:13:56;3.78;;;1.70;;
69310;SDS011;56430;48.154;16.458;2023-06-14T03:16:23;4.18;;;1.50;;
69310;SDS011;56430;48.154;16.458;2023-06-14T03:18:51;3.88;;;1.50;;
69310;SDS011;56430;48.154;16.458;2023-06-14T03:21:18;3.63;;;1.55;;
69310;SDS011;56430;48.154;16.458;2023-06-14T03:23:47;5.10;;;1.70;;
69310;SDS011;56430;48.154;16.458;2023-06-14T03:26:14;4.20;;;1.70;;
69310;SDS011;56430;48.154;16.458;2023-06-14T03:28:43;3.45;;;1.55;;
69310;SDS011;56430;48.154;16.458;2023-06-14T03:31:10;4.65;;;1.75;;
69310;SDS011;56430;48.154;16.458;2023-06-14T03:33:36;3.75;;;1.90;;
69310;SDS011;56430;48.154;16.458;2023-06-14T03:36:03;3.97;;;1.87;;
69310;SDS011;56430;48.154;16.458;2023-06-14T03:38:30;3.90;;;1.70;;
69310;SDS011;56430;48.154;16.458;2023-06-14T03:40:58;3.95;;;1.50;;
69310;SDS011;56430;48.154;16.458;2023-06-14T03:43:25;5.97;;;2.20;;
69310;SDS011;56430;48.154;16.458;2023-06-14T03:45:52;3.60;;;1.45;;
69310;SDS011;56430;48.154;16.458;2023-06-14T03:48:19;4.73;;;1.90;;
69310;SDS011;56430;48.154;16.458;2023-06-14T03:50:46;4.85;;;2.20;;
69310;SDS011;56430;48.154;16.458;2023-06-14T03:53:13;4.82;;;2.00;;
69310;SDS011;56430;48.154;16.458;2023-06-14T03:55:40;3.47;;;1.85;;
69310;SDS011;56430;48.154;16.458;2023-06-14T03:58:08;5.18;;;2.00;;
69310;SDS011;56430;48.154;16.458;2023-06-14T04:00:35;4.10;;;1.93;;
69310;SDS011;56430;48.154;16.458;2023-06-14T04:03:02;3.28;;;1.70;;
69310;SDS011;56430;48.154;16.458;2023-06-14T04:05:30;4.65;;;1.80;;
69310;SDS011;56430;48.154;16.458;2023-06-14T04:07:57;8.02;;;2.10;;
69310;SDS011;56430;48.154;16.458;2023-06-14T04:10:24;5.20;;;1.70;;
69310;SDS011;56430;48.154;16.458;2023-06-14T04:12:51;5.50;;;2.10;;
69310;SDS011;56430;48.154;16.458;2023-06-14T04:15:19;5.28;;;1.77;;
69310;SDS011;56430;48.154;16.458;2023-06-14T04:17:46;4.18;;;2.05;;
69310;SDS011;56430;48.154;16.458;2023-06-14T04:20:13;5.35;;;1.80;;
69310;SDS011;56430;48.154;16.458;2023-06-14T04:22:39;8.23;;;2.20;;
69310;SDS011;56430;48.154;16.458;2023-06-14T04:25:07;4.87;;;2.07;;
69310;SDS011;56430;48.154;16.458;2023-06-14T04:27:34;6.25;;;1.83;;
69310;SDS011;56430;48.154;16.458;2023-06-14T04:30:01;3.67;;;1.70;;
69310;SDS011;56430;48.154;16.458;2023-06-14T04:32:30;3.92;;;1.75;;
69310;SDS011;56430;48.154;16.458;2023-06-14T04:34:59;5.05;;;2.13;;
69310;SDS011;56430;48.154;16.458;2023-06-14T04:37:27;5.60;;;1.70;;
69310;SDS011;56430;48.154;16.458;2023-06-14T04:39:54;4.72;;;2.00;;
69310;SDS011;56430;48.154;16.458;2023-06-14T04:42:21;4.50;;;1.77;;
69310;SDS011;56430;48.154;16.458;2023-06-14T04:44:50;4.70;;;1.80;;
69310;SDS011;56430;48.154;16.458;2023-06-14T04:47:20;4.20;;;1.60;;
69310;SDS011;56430;48.154;16.458;2023-06-14T04:49:48;4.23;;;1.90;;
69310;SDS011;56430;48.154;16.458;2023-06-14T04:52:16;6.22;;;1.75;;
69310;SDS011;56430;48.154;16.458;2023-06-14T04:54:43;4.10;;;1.80;;
69310;SDS011;56430;48.154;16.458;2023-06-14T04:57:10;3.65;;;1.63;;
69310;SDS011;56430;48.154;16.458;2023-06-14T04:59:39;4.00;;;1.90;;
69310;SDS011;56430;48.154;16.458;2023-06-14T05:02:06;4.60;;;2.10;;
69310;SDS011;56430;48.154;16.458;2023-06-14T05:04:34;5.10;;;1.70;;
69310;SDS011;56430;48.154;16.458;2023-06-14T05:07:07;4.57;;;1.73;;
69310;SDS011;56430;48.154;16.458;2023-06-14T05:09:34;3.85;;;1.98;;
69310;SDS011;56430;48.154;16.458;2023-06-14T05:12:01;6.38;;;1.77;;
69310;SDS011;56430;48.154;16.458;2023-06-14T05:14:28;3.33;;;1.47;;
69310;SDS011;56430;48.154;16.458;2023-06-14T05:16:55;4.32;;;1.80;;
69310;SDS011;56430;48.154;16.458;2023-06-14T05:19:22;4.68;;;1.80;;
69310;SDS011;56430;48.154;16.458;2023-06-14T05:21:49;4.18;;;1.92;;
69310;SDS011;56430;48.154;16.458;2023-06-14T05:24:17;4.68;;;1.80;;
69310;SDS011;56430;48.154;16.458;2023-06-14T05:26:45;4.33;;;1.97;;
69310;SDS011;56430;48.154;16.458;2023-06-14T05:29:12;3.88;;;2.03;;
69310;SDS011;56430;48.154;16.458;2023-06-14T05:31:39;4.45;;;2.00;;
69310;SDS011;56430;48.154;16.458;2023-06-14T05:34:05;3.88;;;1.58;;
69310;SDS011;56430;48.154;16.458;2023-06-14T05:36:32;5.05;;;2.17;;
69310;SDS011;56430;48.154;16.458;2023-06-14T05:38:59;2.93;;;1.37;;
69310;SDS011;56430;48.154;16.458;2023-06-14T05:41:29;3.55;;;1.73;;
69310;SDS011;56430;48.154;16.458;2023-06-14T05:43:56;4.95;;;1.75;;
69310;SDS011;56430;48.154;16.458;2023-06-14T05:46:24;3.45;;;1.60;;
69310;SDS011;56430;48.154;16.458;2023-06-14T05:48:51;6.10;;;1.90;;
69310;SDS011;56430;48.154;16.458;2023-06-14T05:51:18;4.23;;;2.13;;
69310;SDS011;56430;48.154;16.458;2023-06-14T05:53:45;4.90;;;2.10;;
69310;SDS011;56430;48.154;16.458;2023-06-14T05:56:12;5.70;;;1.90;;
69310;SDS011;56430;48.154;16.458;2023-06-14T05:58:40;4.90;;;1.75;;
69310;SDS011;56430;48.154;16.458;2023-06-14T06:01:07;3.80;;;1.60;;
69310;SDS011;56430;48.154;16.458;2023-06-14T06:03:34;4.00;;;1.70;;
69310;SDS011;56430;48.154;16.458;2023-06-14T06:06:01;7.47;;;1.65;;
69310;SDS011;56430;48.154;16.458;2023-06-14T06:08:28;4.03;;;1.52;;
69310;SDS011;56430;48.154;16.458;2023-06-14T06:10:55;4.05;;;1.50;;
69310;SDS011;56430;48.154;16.458;2023-06-14T06:13:22;3.35;;;1.20;;
69310;SDS011;56430;48.154;16.458;2023-06-14T06:15:50;4.70;;;1.30;;
69310;SDS011;56430;48.154;16.458;2023-06-14T06:18:17;3.00;;;1.50;;
69310;SDS011;56430;48.154;16.458;2023-06-14T06:20:44;4.57;;;1.50;;
69310;SDS011;56430;48.154;16.458;2023-06-14T06:23:12;3.70;;;1.38;;
69310;SDS011;56430;48.154;16.458;2023-06-14T06:25:39;3.85;;;1.77;;
69310;SDS011;56430;48.154;16.458;2023-06-14T06:28:06;3.93;;;1.50;;
69310;SDS011;56430;48.154;16.458;2023-06-14T06:30:33;7.20;;;1.80;;
69310;SDS011;56430;48.154;16.458;2023-06-14T06:33:02;3.53;;;1.70;;
69310;SDS011;56430;48.154;16.458;2023-06-14T06:35:29;7.30;;;2.55;;
69310;SDS011;56430;48.154;16.458;2023-06-14T06:37:58;8.50;;;3.45;;
69310;SDS011;56430;48.154;16.458;2023-06-14T06:40:25;4.87;;;2.30;;
69310;SDS011;56430;48.154;16.458;2023-06-14T06:42:52;5.18;;;1.88;;
69310;SDS011;56430;48.154;16.458;2023-06-14T06:48:24;5.90;;;1.92;;
69310;SDS011;56430;48.154;16.458;2023-06-14T06:50:51;5.60;;;1.70;;
69310;SDS011;56430;48.154;16.458;2023-06-14T06:53:17;4.83;;;1.47;;
69310;SDS011;56430;48.154;16.458;2023-06-14T06:55:45;3.65;;;1.60;;
69310;SDS011;56430;48.154;16.458;2023-06-14T06:58:11;3.65;;;1.60;;
69310;SDS011;56430;48.154;16.458;2023-06-14T07:00:38;7.45;;;1.98;;
69310;SDS011;56430;48.154;16.458;2023-06-14T07:03:06;4.10;;;1.55;;
69310;SDS011;56430;48.154;16.458;2023-06-14T07:05:34;3.53;;;1.67;;
69310;SDS011;56430;48.154;16.458;2023-06-14T07:08:01;4.75;;;1.50;;
69310;SDS011;56430;48.154;16.458;2023-06-14T07:10:28;2.83;;;1.50;;
69310;SDS011;56430;48.154;16.458;2023-06-14T07:12:56;3.80;;;1.73;;
69310;SDS011;56430;48.154;16.458;2023-06-14T07:15:23;4.80;;;1.60;;
69310;SDS011;56430;48.154;16.458;2023-06-14T07:17:50;3.10;;;1.60;;
69310;SDS011;56430;48.154;16.458;2023-06-14T07:20:18;3.92;;;1.80;;
69310;SDS011;56430;48.154;16.458;2023-06-14T07:22:48;4.78;;;1.55;;
69310;SDS011;56430;48.154;16.458;2023-06-14T07:25:14;4.75;;;2.30;;
69310;SDS011;56430;48.154;16.458;2023-06-14T07:27:41;4.38;;;2.25;;
69310;SDS011;56430;48.154;16.458;2023-06-14T07:30:09;3.97;;;2.00;;
69310;SDS011;56430;48.154;16.458;2023-06-14T07:32:36;4.00;;;1.80;;
69310;SDS011;56430;48.154;16.458;2023-06-14T07:35:03;2.80;;;1.48;;
69310;SDS011;56430;48.154;16.458;2023-06-14T07:37:30;5.97;;;1.88;;
69310;SDS011;56430;48.154;16.458;2023-06-14T07:39:58;3.55;;;1.90;;
69310;SDS011;56430;48.154;16.458;2023-06-14T07:42:25;3.90;;;1.90;;
69310;SDS011;56430;48.154;16.458;2023-06-14T07:44:52;3.47;;;1.57;;
69310;SDS011;56430;48.154;16.458;2023-06-14T07:47:19;3.00;;;1.55;;
69310;SDS011;56430;48.154;16.458;2023-06-14T07:49:46;4.70;;;1.50;;
69310;SDS011;56430;48.154;16.458;2023-06-14T07:52:12;3.70;;;1.63;;
69310;SDS011;56430;48.154;16.458;2023-06-14T07:54:39;4.25;;;2.20;;
69310;SDS011;56430;48.154;16.458;2023-06-14T07:57:08;4.28;;;2.40;;
69310;SDS011;56430;48.154;16.458;2023-06-14T07:59:35;3.88;;;1.70;;
69310;SDS011;56430;48.154;16.458;2023-06-14T08:02:01;3.97;;;2.40;;
69310;SDS011;56430;48.154;16.458;2023-06-14T08:04:28;5.53;;;2.50;;
69310;SDS011;56430;48.154;16.458;2023-06-14T08:06:56;3.40;;;1.75;;
69310;SDS011;56430;48.154;16.458;2023-06-14T08:09:23;4.32;;;2.13;;
69310;SDS011;56430;48.154;16.458;2023-06-14T08:11:50;3.47;;;2.00;;
69310;SDS011;56430;48.154;16.458;2023-06-14T08:14:18;3.97;;;1.92;;
69310;SDS011;56430;48.154;16.458;2023-06-14T08:16:45;4.18;;;1.77;;
69310;SDS011;56430;48.154;16.458;2023-06-14T08:19:12;4.07;;;1.90;;
69310;SDS011;56430;48.154;16.458;2023-06-14T08:21:39;4.13;;;2.05;;
69310;SDS011;56430;48.154;16.458;2023-06-14T08:24:06;4.50;;;2.33;;
69310;SDS011;56430;48.154;16.458;2023-06-14T08:26:32;4.27;;;2.10;;
69310;SDS011;56430;48.154;16.458;2023-06-14T08:28:59;5.97;;;1.90;;
69310;SDS011;56430;48.154;16.458;2023-06-14T08:31:28;3.65;;;2.20;;
69310;SDS011;56430;48.154;16.458;2023-06-14T08:33:57;3.88;;;1.88;;
69310;SDS011;56430;48.154;16.458;2023-06-14T08:36:24;3.17;;;2.00;;
69310;SDS011;56430;48.154;16.458;2023-06-14T08:38:50;3.30;;;1.95;;
69310;SDS011;56430;48.154;16.458;2023-06-14T08:43:45;3.20;;;1.75;;
69310;SDS011;56430;48.154;16.458;2023-06-14T08:46:11;3.97;;;1.65;;
69310;SDS011;56430;48.154;16.458;2023-06-14T08:48:45;3.63;;;2.10;;
69310;SDS011;56430;48.154;16.458;2023-06-14T08:51:12;3.30;;;1.60;;
69310;SDS011;56430;48.154;16.458;2023-06-14T08:53:41;3.05;;;1.80;;
69310;SDS011;56430;48.154;16.458;2023-06-14T08:56:09;2.92;;;1.58;;
69310;SDS011;56430;48.154;16.458;2023-06-14T08:58:39;3.90;;;1.75;;
69310;SDS011;56430;48.154;16.458;2023-06-14T09:01:09;3.05;;;1.70;;
69310;SDS011;56430;48.154;16.458;2023-06-14T09:03:37;4.70;;;1.80;;
69310;SDS011;56430;48.154;16.458;2023-06-14T09:06:08;3.78;;;1.70;;
69310;SDS011;56430;48.154;16.458;2023-06-14T09:08:40;3.35;;;1.83;;
69310;SDS011;56430;48.154;16.458;2023-06-14T09:11:07;3.05;;;1.77;;
69310;SDS011;56430;48.154;16.458;2023-06-14T09:13:34;2.57;;;1.40;;
69310;SDS011;56430;48.154;16.458;2023-06-14T09:16:01;6.50;;;1.50;;
69310;SDS011;56430;48.154;16.458;2023-06-14T09:18:35;3.15;;;1.70;;
69310;SDS011;56430;48.154;16.458;2023-06-14T09:21:02;3.17;;;1.80;;
69310;SDS011;56430;48.154;16.458;2023-06-14T09:23:32;3.90;;;1.73;;
69310;SDS011;56430;48.154;16.458;2023-06-14T09:26:00;3.08;;;1.90;;
69310;SDS011;56430;48.154;16.458;2023-06-14T09:28:27;2.58;;;1.60;;
69310;SDS011;56430;48.154;16.458;2023-06-14T09:30:54;3.47;;;1.60;;
69310;SDS011;56430;48.154;16.458;2023-06-14T09:33:21;3.95;;;2.00;;
69310;SDS011;56430;48.154;16.458;2023-06-14T09:35:50;3.47;;;1.80;;
69310;SDS011;56430;48.154;16.458;2023-06-14T09:38:17;3.03;;;1.70;;
69310;SDS011;56430;48.154;16.458;2023-06-14T09:40:45;3.00;;;2.10;;
69310;SDS011;56430;48.154;16.458;2023-06-14T09:43:12;4.10;;;1.92;;
69310;SDS011;56430;48.154;16.458;2023-06-14T09:45:39;2.35;;;1.70;;
69310;SDS011;56430;48.154;16.458;2023-06-14T09:48:06;2.75;;;2.20;;
69310;SDS011;56430;48.154;16.458;2023-06-14T09:50:33;4.13;;;1.98;;
69310;SDS011;56430;48.154;16.458;2023-06-14T09:53:02;3.08;;;2.20;;
69310;SDS011;56430;48.154;16.458;2023-06-14T09:55:30;3.58;;;2.30;;
69310;SDS011;56430;48.154;16.458;2023-06-14T09:57:58;4.47;;;2.53;;
69310;SDS011;56430;48.154;16.458;2023-06-14T10:00:26;3.22;;;2.20;;
69310;SDS011;56430;48.154;16.458;2023-06-14T10:02:58;3.23;;;2.47;;
69310;SDS011;56430;48.154;16.458;2023-06-14T10:05:28;2.80;;;2.17;;
69310;SDS011;56430;48.154;16.458;2023-06-14T10:07:55;3.75;;;2.30;;
69310;SDS011;56430;48.154;16.458;2023-06-14T10:10:25;3.83;;;2.60;;
69310;SDS011;56430;48.154;16.458;2023-06-14T10:12:52;3.22;;;2.22;;
69310;SDS011;56430;48.154;16.458;2023-06-14T10:15:22;4.63;;;2.40;;
69310;SDS011;56430;48.154;16.458;2023-06-14T10:17:52;3.90;;;2.60;;
69310;SDS011;56430;48.154;16.458;2023-06-14T10:20:24;2.88;;;2.45;;
69310;SDS011;56430;48.154;16.458;2023-06-14T10:22:54;3.20;;;2.75;;
69310;SDS011;56430;48.154;16.458;2023-06-14T10:25:27;3.28;;;2.40;;
69310;SDS011;56430;48.154;16.458;2023-06-14T10:30:38;3.83;;;2.67;;
69310;SDS011;56430;48.154;16.458;2023-06-14T10:33:05;3.50;;;2.80;;
69310;SDS011;56430;48.154;16.458;2023-06-14T10:35:32;3.40;;;2.92;;
69310;SDS011;56430;48.154;16.458;2023-06-14T10:38:09;4.30;;;2.65;;
69310;SDS011;56430;48.154;16.458;2023-06-14T10:40:36;2.80;;;2.50;;
69310;SDS011;56430;48.154;16.458;2023-06-14T10:48:30;3.10;;;2.55;;
69310;SDS011;56430;48.154;16.458;2023-06-14T10:50:59;3.25;;;2.95;;
69310;SDS011;56430;48.154;16.458;2023-06-14T10:53:27;5.40;;;2.77;;
69310;SDS011;56430;48.154;16.458;2023-06-14T10:55:56;4.80;;;3.00;;
69310;SDS011;56430;48.154;16.458;2023-06-14T10:58:23;4.25;;;2.65;;
69310;SDS011;56430;48.154;16.458;2023-06-14T11:00:50;3.45;;;2.88;;
69310;SDS011;56430;48.154;16.458;2023-06-14T11:06:12;3.00;;;2.40;;
69310;SDS011;56430;48.154;16.458;2023-06-14T11:08:44;3.25;;;2.55;;
69310;SDS011;56430;48.154;16.458;2023-06-14T11:11:18;3.53;;;2.58;;
69310;SDS011;56430;48.154;16.458;2023-06-14T11:13:45;4.55;;;2.58;;
69310;SDS011;56430;48.154;16.458;2023-06-14T11:16:14;2.47;;;2.00;;
69310;SDS011;56430;48.154;16.458;2023-06-14T11:18:41;3.10;;;2.40;;
69310;SDS011;56430;48.154;16.458;2023-06-14T11:21:08;3.80;;;2.30;;
69310;SDS011;56430;48.154;16.458;2023-06-14T11:23:36;3.70;;;2.17;;
69310;SDS011;56430;48.154;16.458;2023-06-14T11:26:03;3.08;;;2.20;;
69310;SDS011;56430;48.154;16.458;2023-06-14T11:28:37;3.33;;;2.00;;
69310;SDS011;56430;48.154;16.458;2023-06-14T11:31:04;3.58;;;2.53;;
69310;SDS011;56430;48.154;16.458;2023-06-14T11:33:31;3.10;;;1.80;;
69310;SDS011;56430;48.154;16.458;2023-06-14T11:35:58;3.00;;;2.30;;
69310;SDS011;56430;48.154;16.458;2023-06-14T11:38:25;3.78;;;1.85;;
69310;SDS011;56430;48.154;16.458;2023-06-14T11:40:58;3.97;;;2.10;;
69310;SDS011;56430;48.154;16.458;2023-06-14T11:43:24;3.20;;;1.83;;
69310;SDS011;56430;48.154;16.458;2023-06-14T11:45:52;4.07;;;1.80;;
69310;SDS011;56430;48.154;16.458;2023-06-14T11:48:19;3.75;;;2.00;;
69310;SDS011;56430;48.154;16.458;2023-06-14T11:50:49;4.65;;;1.88;;
69310;SDS011;56430;48.154;16.458;2023-06-14T11:53:16;3.55;;;1.77;;
69310;SDS011;56430;48.154;16.458;2023-06-14T11:55:43;3.55;;;1.63;;
69310;SDS011;56430;48.154;16.458;2023-06-14T11:58:14;5.35;;;3.42;;
69310;SDS011;56430;48.154;16.458;2023-06-14T12:00:41;8.07;;;2.70;;
69310;SDS011;56430;48.154;16.458;2023-06-14T12:03:08;3.88;;;1.58;;
69310;SDS011;56430;48.154;16.458;2023-06-14T12:05:35;3.90;;;1.80;;
69310;SDS011;56430;48.154;16.458;2023-06-14T12:08:03;4.73;;;1.80;;
69310;SDS011;56430;48.154;16.458;2023-06-14T12:10:39;3.90;;;1.77;;
69310;SDS011;56430;48.154;16.458;2023-06-14T12:13:06;3.20;;;1.70;;
69310;SDS011;56430;48.154;16.458;2023-06-14T12:15:34;4.40;;;2.03;;
69310;SDS011;56430;48.154;16.458;2023-06-14T12:18:01;2.88;;;1.63;;
69310;SDS011;56430;48.154;16.458;2023-06-14T12:20:32;5.55;;;2.58;;
69310;SDS011;56430;48.154;16.458;2023-06-14T12:23:00;5.20;;;1.75;;
69310;SDS011;56430;48.154;16.458;2023-06-14T12:25:29;4.03;;;1.90;;
69310;SDS011;56430;48.154;16.458;2023-06-14T12:27:57;3.27;;;1.60;;
69310;SDS011;56430;48.154;16.458;2023-06-14T12:30:25;4.90;;;1.88;;
69310;SDS011;56430;48.154;16.458;2023-06-14T12:32:53;4.45;;;2.08;;
69310;SDS011;56430;48.154;16.458;2023-06-14T12:35:20;3.35;;;1.67;;
69310;SDS011;56430;48.154;16.458;2023-06-14T12:37:47;4.85;;;1.95;;
69310;SDS011;56430;48.154;16.458;2023-06-14T12:40:14;3.67;;;1.90;;
69310;SDS011;56430;48.154;16.458;2023-06-14T12:42:41;4.93;;;1.60;;
69310;SDS011;56430;48.154;16.458;2023-06-14T12:45:08;4.23;;;1.73;;
69310;SDS011;56430;48.154;16.458;2023-06-14T12:47:35;3.67;;;1.87;;
69310;SDS011;56430;48.154;16.458;2023-06-14T12:50:04;3.20;;;1.40;;
69310;SDS011;56430;48.154;16.458;2023-06-14T12:52:31;3.55;;;1.55;;
69310;SDS011;56430;48.154;16.458;2023-06-14T12:55:01;3.70;;;1.40;;
69310;SDS011;56430;48.154;16.458;2023-06-14T12:57:28;3.10;;;1.67;;
69310;SDS011;56430;48.154;16.458;2023-06-14T12:59:55;4.60;;;1.80;;
69310;SDS011;56430;48.154;16.458;2023-06-14T13:02:22;4.30;;;1.50;;
69310;SDS011;56430;48.154;16.458;2023-06-14T13:04:50;3.67;;;1.90;;
69310;SDS011;56430;48.154;16.458;2023-06-14T13:07:18;3.03;;;1.40;;
69310;SDS011;56430;48.154;16.458;2023-06-14T13:09:45;2.67;;;1.58;;
69310;SDS011;56430;48.154;16.458;2023-06-14T13:12:12;2.65;;;1.30;;
69310;SDS011;56430;48.154;16.458;2023-06-14T13:14:39;3.97;;;1.45;;
69310;SDS011;56430;48.154;16.458;2023-06-14T13:17:07;4.70;;;1.50;;
69310;SDS011;56430;48.154;16.458;2023-06-14T13:19:34;3.28;;;1.60;;
69310;SDS011;56430;48.154;16.458;2023-06-14T13:22:01;2.95;;;1.50;;
69310;SDS011;56430;48.154;16.458;2023-06-14T13:24:30;8.17;;;1.80;;
69310;SDS011;56430;48.154;16.458;2023-06-14T13:26:57;5.63;;;1.85;;
69310;SDS011;56430;48.154;16.458;2023-06-14T13:29:24;3.80;;;1.83;;
69310;SDS011;56430;48.154;16.458;2023-06-14T13:31:51;6.68;;;1.75;;
69310;SDS011;56430;48.154;16.458;2023-06-14T13:34:19;3.10;;;1.70;;
69310;SDS011;56430;48.154;16.458;2023-06-14T13:36:46;9.57;;;1.93;;
69310;SDS011;56430;48.154;16.458;2023-06-14T13:39:13;3.10;;;1.43;;
69310;SDS011;56430;48.154;16.458;2023-06-14T13:41:41;3.60;;;1.60;;
69310;SDS011;56430;48.154;16.458;2023-06-14T13:44:08;5.00;;;1.77;;
69310;SDS011;56430;48.154;16.458;2023-06-14T13:46:36;4.43;;;1.52;;
69310;SDS011;56430;48.154;16.458;2023-06-14T13:49:03;3.47;;;1.60;;
69310;SDS011;56430;48.154;16.458;2023-06-14T13:51:30;4.35;;;1.65;;
69310;SDS011;56430;48.154;16.458;2023-06-14T13:53:58;7.33;;;1.53;;
69310;SDS011;56430;48.154;16.458;2023-06-14T13:56:25;6.25;;;1.70;;
69310;SDS011;56430;48.154;16.458;2023-06-14T13:58:53;3.00;;;1.40;;
69310;SDS011;56430;48.154;16.458;2023-06-14T14:01:20;3.20;;;1.73;;
69310;SDS011;56430;48.154;16.458;2023-06-14T14:03:48;3.17;;;1.50;;
69310;SDS011;56430;48.154;16.458;2023-06-14T14:06:15;4.32;;;1.90;;
69310;SDS011;56430;48.154;16.458;2023-06-14T14:08:42;3.07;;;1.70;;
69310;SDS011;56430;48.154;16.458;2023-06-14T14:11:09;3.35;;;1.60;;
69310;SDS011;56430;48.154;16.458;2023-06-14T14:13:36;3.80;;;1.42;;
69310;SDS011;56430;48.154;16.458;2023-06-14T14:16:05;3.53;;;1.70;;
69310;SDS011;56430;48.154;16.458;2023-06-14T14:18:32;5.50;;;1.60;;
69310;SDS011;56430;48.154;16.458;2023-06-14T14:20:59;3.20;;;1.50;;
69310;SDS011;56430;48.154;16.458;2023-06-14T14:23:26;5.20;;;1.40;;
69310;SDS011;56430;48.154;16.458;2023-06-14T14:25:53;2.73;;;1.43;;
69310;SDS011;56430;48.154;16.458;2023-06-14T14:28:20;3.20;;;1.30;;
69310;SDS011;56430;48.154;16.458;2023-06-14T14:30:47;7.50;;;1.77;;
69310;SDS011;56430;48.154;16.458;2023-06-14T14:33:15;2.92;;;1.45;;
69310;SDS011;56430;48.154;16.458;2023-06-14T14:35:43;3.58;;;1.60;;
69310;SDS011;56430;48.154;16.458;2023-06-14T14:38:11;5.10;;;1.60;;
69310;SDS011;56430;48.154;16.458;2023-06-14T14:40:38;3.75;;;1.73;;
69310;SDS011;56430;48.154;16.458;2023-06-14T14:43:05;3.83;;;1.53;;
69310;SDS011;56430;48.154;16.458;2023-06-14T14:45:32;6.73;;;1.80;;
69310;SDS011;56430;48.154;16.458;2023-06-14T14:48:00;2.97;;;1.45;;
69310;SDS011;56430;48.154;16.458;2023-06-14T14:50:28;3.15;;;1.58;;
69310;SDS011;56430;48.154;16.458;2023-06-14T14:52:55;2.97;;;1.50;;